Time;durP1;ratioP1;P1;durP2;ratioP2;P2;SDS_P1;SDS_P2;PMS_P1;PMS_P2;Temp;Humidity;BMP_temperature;BMP_pressure;BME280_temperature;BME280_humidity;BME280_pressure;Samples;Min_cycle;Max_cycle;Signal;HPM_P1;HPM_P2
2021/04/27 00:01:54;;;;;;;2.55;0.50;;;;;;;3.47;40.40;101634.84;5015478;28;20033;-68
2021/04/27 00:04:20;;;;;;;2.05;0.93;;;;;;;3.48;40.47;101631.38;5033514;28;20036;-69
2021/04/27 00:06:45;;;;;;;1.75;0.68;;;;;;;3.38;40.14;101629.63;5018427;28;20044;-68
2021/04/27 00:09:11;;;;;;;2.90;1.13;;;;;;;3.31;40.16;101622.72;5035933;28;20038;-68
2021/04/27 00:11:37;;;;;;;2.45;1.40;;;;;;;3.11;40.48;101623.53;5020281;28;20037;-68
2021/04/27 00:14:06;;;;;;;5.55;1.00;;;;;;;3.30;40.11;101623.59;5016183;28;20040;-70
2021/04/27 00:16:31;;;;;;;1.65;0.73;;;;;;;3.21;39.89;101626.13;5015656;28;20033;-68
2021/04/27 00:18:57;;;;;;;4.35;1.20;;;;;;;3.21;39.87;101614.06;5021518;28;20517;-72
2021/04/27 00:21:23;;;;;;;3.30;0.40;;;;;;;3.11;39.99;101623.53;5036948;28;20036;-68
2021/04/27 00:23:48;;;;;;;2.92;0.75;;;;;;;3.04;39.87;101613.16;5036022;28;20029;-67
2021/04/27 00:26:13;;;;;;;1.38;0.52;;;;;;;3.05;39.56;101614.91;5033565;28;20055;-69
2021/04/27 00:28:39;;;;;;;2.15;0.63;;;;;;;3.05;39.41;101605.41;5032427;28;20029;-69
2021/04/27 00:31:05;;;;;;;1.75;0.50;;;;;;;3.00;39.23;101604.53;5034431;28;20519;-70
2021/04/27 00:33:30;;;;;;;1.27;0.50;;;;;;;3.05;38.82;101615.75;5033682;28;20068;-69
2021/04/27 00:35:56;;;;;;;2.00;0.60;;;;;;;3.10;38.43;101608.00;5016830;28;20044;-69
2021/04/27 00:38:21;;;;;;;1.40;0.50;;;;;;;3.16;38.03;101597.72;5032586;28;20032;-68
2021/04/27 00:40:47;;;;;;;1.40;0.80;;;;;;;3.08;38.03;101599.41;5018828;28;20142;-71
2021/04/27 00:43:13;;;;;;;3.88;0.40;;;;;;;3.14;37.79;101597.69;5032926;28;20048;-70
2021/04/27 00:45:38;;;;;;;2.08;0.40;;;;;;;2.93;37.99;101595.03;5016481;28;20029;-69
2021/04/27 00:48:04;;;;;;;1.33;0.40;;;;;;;3.12;37.56;101596.81;5020539;28;20094;-69
2021/04/27 00:50:34;;;;;;;4.70;0.60;;;;;;;3.01;37.69;101595.06;5016306;28;20086;-69
2021/04/27 00:53:00;;;;;;;2.42;0.25;;;;;;;3.10;37.21;101595.94;5033514;28;20084;-68
2021/04/27 00:55:27;;;;;;;2.47;0.40;;;;;;;2.89;37.55;101601.94;5031312;28;20029;-68
2021/04/27 00:57:53;;;;;;;2.83;0.77;;;;;;;3.05;37.11;101589.06;5033248;28;20155;-68
2021/04/27 01:00:24;;;;;;;1.58;0.40;;;;;;;2.93;37.32;101593.31;5034273;28;20513;-65
2021/04/27 01:02:51;;;;;;;0.73;0.20;;;;;;;2.95;37.19;101586.44;5032717;28;20037;-65
2021/04/27 01:05:19;;;;;;;1.20;0.20;;;;;;;2.79;37.38;101586.38;5033828;28;20175;-67
2021/04/27 01:07:55;;;;;;;3.00;0.32;;;;;;;2.87;37.12;101589.88;5032653;28;20529;-67
2021/04/27 01:10:27;;;;;;;2.25;0.22;;;;;;;2.71;37.78;101583.75;5023967;28;20171;-65
2021/04/27 01:12:59;;;;;;;1.23;0.35;;;;;;;2.82;37.43;101587.25;5015651;28;20048;-69
2021/04/27 01:15:29;;;;;;;1.58;0.20;;;;;;;2.68;37.75;101582.03;4996423;28;20036;-68
2021/04/27 01:17:57;;;;;;;4.88;0.10;;;;;;;2.53;38.01;101587.13;5032463;28;20433;-69
2021/04/27 01:20:38;;;;;;;4.28;0.30;;;;;;;2.76;37.65;101572.59;5006542;28;20611;-69
2021/04/27 01:23:11;;;;;;;0.80;0.10;;;;;;;2.52;37.99;101577.66;5032610;28;20093;-68
2021/04/27 01:25:43;;;;;;;2.97;0.40;;;;;;;2.64;37.90;101571.69;5016734;28;20091;-68
2021/04/27 01:28:10;;;;;;;3.50;0.10;;;;;;;2.45;38.13;101573.34;4998340;28;20553;-66
2021/04/27 01:30:38;;;;;;;1.20;0.35;;;;;;;2.61;37.85;101564.81;5013671;28;20116;-68
2021/04/27 01:33:11;;;;;;;2.53;0.45;;;;;;;2.58;37.82;101557.06;5031287;28;20534;-66
2021/04/27 01:35:38;;;;;;;1.38;0.22;;;;;;;2.69;37.56;101557.97;5033032;28;20025;-68
2021/04/27 01:38:06;;;;;;;0.60;0.20;;;;;;;2.50;38.01;101563.88;5016111;28;20409;-67
2021/04/27 01:40:32;;;;;;;0.65;0.20;;;;;;;2.48;38.01;101560.44;5015191;28;20032;-67
2021/04/27 01:43:01;;;;;;;0.68;0.20;;;;;;;2.40;38.38;101556.94;5012592;28;20108;-67
2021/04/27 01:45:29;;;;;;;1.85;0.10;;;;;;;2.41;38.28;101558.69;5031872;28;20029;-67
2021/04/27 01:47:55;;;;;;;0.80;0.43;;;;;;;2.22;38.62;101558.59;5031696;28;20691;-67
2021/04/27 01:50:23;;;;;;;1.20;0.10;;;;;;;2.21;38.88;101558.59;5031548;28;20021;-68
2021/04/27 01:53:10;;;;;;;0.82;0.20;;;;;;;2.38;38.74;101558.66;5031999;28;20052;-66
2021/04/27 01:55:36;;;;;;;0.38;0.10;;;;;;;2.39;38.44;101556.09;5015024;28;20036;-67
2021/04/27 01:58:01;;;;;;;0.77;0.22;;;;;;;2.33;38.54;101554.38;5017311;28;20029;-67
2021/04/27 02:00:27;;;;;;;3.15;0.63;;;;;;;2.28;38.43;101548.28;5022311;28;20112;-66
2021/04/27 02:02:53;;;;;;;1.08;0.40;;;;;;;2.48;38.32;101547.53;5032728;28;20033;-67
2021/04/27 02:05:39;;;;;;;0.80;0.20;;;;;;;2.50;38.04;101540.66;5032723;28;20037;-67
2021/04/27 02:08:17;;;;;;;1.90;0.40;;;;;;;2.53;37.73;101544.13;5022348;28;20037;-67
2021/04/27 02:10:47;;;;;;;2.05;0.25;;;;;;;2.48;37.99;101548.38;5032850;28;20043;-67
2021/04/27 02:13:15;;;;;;;0.82;0.15;;;;;;;2.55;37.75;101546.69;5015285;28;20025;-67
2021/04/27 02:15:49;;;;;;;1.23;0.15;;;;;;;2.69;37.50;101547.63;5032844;28;20037;-67
2021/04/27 02:18:28;;;;;;;3.20;0.30;;;;;;;2.64;37.54;101540.72;5016380;28;20116;-67
2021/04/27 02:20:58;;;;;;;1.27;0.35;;;;;;;2.63;37.30;101539.88;5031813;28;20033;-68
2021/04/27 02:23:48;;;;;;;0.88;0.20;;;;;;;2.65;37.05;101540.72;4994315;28;20033;-67
2021/04/27 02:26:17;;;;;;;2.25;0.30;;;;;;;2.66;36.93;101545.03;5022869;28;20033;-67
2021/04/27 02:28:50;;;;;;;0.60;0.10;;;;;;;2.81;36.43;101535.63;5022353;28;20037;-67
2021/04/27 02:31:19;;;;;;;1.25;0.20;;;;;;;2.76;36.18;101538.19;5015849;28;20033;-67
2021/04/27 02:33:45;;;;;;;1.30;0.15;;;;;;;2.78;35.99;101539.06;5000791;28;20024;-68
2021/04/27 02:36:11;;;;;;;2.45;0.30;;;;;;;3.06;35.53;101531.38;5016502;28;20095;-67
2021/04/27 02:39:15;;;;;;;1.55;0.20;;;;;;;2.96;35.56;101528.78;5017334;28;20049;-68
2021/04/27 02:41:41;;;;;;;1.52;0.95;;;;;;;2.92;35.30;101527.03;5011248;28;20049;-68
2021/04/27 02:44:23;;;;;;;1.42;0.20;;;;;;;2.87;35.33;101535.66;5009470;28;20028;-68
2021/04/27 02:46:50;;;;;;;2.40;0.20;;;;;;;3.07;34.60;101533.97;5021733;28;20037;-67
2021/04/27 02:49:15;;;;;;;4.25;0.17;;;;;;;2.79;35.12;101534.75;5034341;28;20280;-68
2021/04/27 02:51:51;;;;;;;0.60;0.17;;;;;;;2.80;35.22;101521.84;5033968;28;20044;-70
2021/04/27 02:54:16;;;;;;;1.85;0.20;;;;;;;2.80;35.17;101523.56;5020860;28;20041;-69
2021/04/27 02:56:43;;;;;;;0.70;0.20;;;;;;;2.59;35.59;101527.78;5021264;28;20449;-69
2021/04/27 02:59:14;;;;;;;1.60;0.30;;;;;;;2.84;34.74;101522.72;5024156;28;20051;-69
2021/04/27 03:01:41;;;;;;;0.28;0.10;;;;;;;2.94;34.78;101524.47;5019049;28;20073;-69
2021/04/27 03:04:11;;;;;;;0.70;0.13;;;;;;;2.82;35.10;101525.28;5019911;28;20056;-68
2021/04/27 03:07:06;;;;;;;1.55;0.20;;;;;;;2.79;35.16;101514.97;5034806;28;20035;-69
2021/04/27 03:09:35;;;;;;;1.27;0.20;;;;;;;2.65;35.31;101522.66;5034684;28;20036;-70
2021/04/27 03:12:01;;;;;;;0.68;0.15;;;;;;;2.64;35.56;101520.06;5035266;28;20041;-72
2021/04/27 03:14:29;;;;;;;0.73;0.10;;;;;;;2.62;35.61;101517.47;5018646;28;20505;-66
2021/04/27 03:16:55;;;;;;;1.13;0.20;;;;;;;2.82;35.31;101509.78;5004830;28;20120;-68
2021/04/27 03:19:21;;;;;;;3.40;0.40;;;;;;;2.60;35.70;101514.06;5035200;28;20045;-66
2021/04/27 03:22:00;;;;;;;1.30;0.20;;;;;;;2.68;35.38;101514.91;5025929;28;20080;-66
2021/04/27 03:24:30;;;;;;;0.85;0.22;;;;;;;2.73;35.48;101514.94;5008211;28;20125;-66
2021/04/27 03:26:55;;;;;;;1.27;0.20;;;;;;;2.76;35.29;101509.78;5035309;28;20029;-67
2021/04/27 03:29:40;;;;;;;1.27;0.15;;;;;;;2.46;35.89;101505.38;5017477;28;20036;-68
2021/04/27 03:32:06;;;;;;;1.52;0.20;;;;;;;2.35;36.07;101513.97;5026977;28;20064;-66
2021/04/27 03:34:35;;;;;;;0.77;0.10;;;;;;;2.44;36.17;101504.50;5033311;28;20370;-67
2021/04/27 03:37:02;;;;;;;1.77;0.20;;;;;;;2.52;35.90;101505.41;5003575;28;20115;-66
2021/04/27 03:39:29;;;;;;;1.00;0.30;;;;;;;2.36;36.57;101509.66;5034773;28;20531;-67
2021/04/27 03:41:58;;;;;;;2.53;0.20;;;;;;;2.59;36.03;101507.16;5015620;28;20108;-64
2021/04/27 03:44:23;;;;;;;1.02;0.38;;;;;;;2.47;36.09;101504.53;5032449;28;20083;-67
2021/04/27 03:46:49;;;;;;;1.52;0.15;;;;;;;2.65;35.85;101504.59;5034700;28;20075;-65
2021/04/27 03:49:14;;;;;;;3.05;0.13;;;;;;;2.60;36.01;101503.72;5034685;28;20172;-65
2021/04/27 03:51:40;;;;;;;0.95;0.43;;;;;;;2.64;35.89;101509.75;5018867;28;21016;-66
2021/04/27 03:54:10;;;;;;;1.70;0.20;;;;;;;2.73;35.86;101508.06;5020498;28;20147;-68
2021/04/27 03:56:39;;;;;;;2.42;0.32;;;;;;;2.60;36.19;101502.84;5032932;28;20029;-65
2021/04/27 03:59:07;;;;;;;0.55;0.10;;;;;;;2.60;36.08;101518.31;5031115;28;20072;-67
2021/04/27 04:01:34;;;;;;;1.40;0.25;;;;;;;2.66;36.06;101508.88;5032457;28;20033;-66
2021/04/27 04:04:00;;;;;;;1.15;0.20;;;;;;;2.62;36.27;101514.88;5035320;28;20394;-67
2021/04/27 04:06:26;;;;;;;1.73;0.20;;;;;;;2.42;36.62;101508.81;5018002;28;20132;-66
2021/04/27 04:08:52;;;;;;;2.10;0.40;;;;;;;2.39;36.70;101508.81;5035837;28;20116;-66
2021/04/27 04:11:20;;;;;;;0.90;0.13;;;;;;;2.43;36.68;101513.13;5018764;28;20051;-65
2021/04/27 04:13:46;;;;;;;1.63;0.20;;;;;;;2.56;36.61;101509.72;5036902;28;20068;-66
2021/04/27 04:16:11;;;;;;;1.33;0.30;;;;;;;2.68;36.37;101516.66;5033859;28;20051;-66
2021/04/27 04:18:37;;;;;;;0.98;0.20;;;;;;;2.65;36.60;101514.91;5024973;28;20056;-64
2021/04/27 04:21:03;;;;;;;1.75;0.30;;;;;;;2.54;36.88;101514.03;5016220;28;20041;-65
2021/04/27 04:23:48;;;;;;;0.80;0.20;;;;;;;2.37;37.14;101515.66;5033503;28;20051;-64
2021/04/27 04:26:14;;;;;;;0.73;0.30;;;;;;;2.48;36.99;101511.41;5031198;28;20041;-67
2021/04/27 04:28:48;;;;;;;1.60;0.52;;;;;;;2.50;37.19;101517.44;5015340;28;20036;-67
2021/04/27 04:31:14;;;;;;;0.75;0.20;;;;;;;2.35;37.63;101516.53;5017059;28;20555;-67
2021/04/27 04:33:59;;;;;;;4.72;0.30;;;;;;;2.46;37.48;101518.28;5032795;28;20495;-70
2021/04/27 04:36:48;;;;;;;2.30;0.17;;;;;;;2.47;37.43;101528.63;5006767;28;20040;-69
2021/04/27 04:39:32;;;;;;;3.72;0.32;;;;;;;2.50;37.22;101525.19;5022910;28;20075;-66
2021/04/27 04:42:16;;;;;;;1.70;0.45;;;;;;;2.48;37.32;101522.59;5032545;28;20083;-66
2021/04/27 04:45:00;;;;;;;1.75;0.20;;;;;;;2.37;37.53;101521.69;5032827;28;20079;-66
2021/04/27 04:47:54;;;;;;;3.25;0.38;;;;;;;2.38;37.36;101522.53;5004054;28;20034;-66
2021/04/27 04:50:39;;;;;;;4.15;0.35;;;;;;;2.39;37.55;101532.88;5036857;28;20098;-65
2021/04/27 04:53:40;;;;;;;1.35;0.30;;;;;;;2.25;38.04;101532.81;5018746;28;20120;-67
2021/04/27 04:56:06;;;;;;;1.50;0.70;;;;;;;2.42;37.53;101529.44;5000738;28;20570;-65
2021/04/27 04:58:34;;;;;;;2.15;0.47;;;;;;;2.35;37.60;101534.59;5032973;28;20030;-64
2021/04/27 05:01:03;;;;;;;1.83;0.80;;;;;;;2.39;37.56;101539.75;5018494;28;20037;-66
2021/04/27 05:03:32;;;;;;;1.27;0.20;;;;;;;2.45;37.27;101534.63;5024186;28;20065;-67
2021/04/27 05:06:38;;;;;;;0.70;0.40;;;;;;;2.49;37.32;101539.81;5029647;28;20152;-66
2021/04/27 05:09:22;;;;;;;3.85;0.20;;;;;;;2.62;36.93;101534.69;5033770;28;20048;-65
2021/04/27 05:11:50;;;;;;;1.02;0.28;;;;;;;2.66;36.53;101542.44;5031453;28;20402;-64
2021/04/27 05:14:35;;;;;;;3.50;0.43;;;;;;;3.46;35.12;101537.47;5031425;28;20042;-66
2021/04/27 05:17:03;;;;;;;2.35;0.20;;;;;;;4.10;33.93;101536.56;4999453;28;20076;-66
2021/04/27 05:19:29;;;;;;;1.50;0.22;;;;;;;4.95;32.08;101541.41;5031737;28;20081;-67
2021/04/27 05:21:55;;;;;;;1.60;0.22;;;;;;;5.84;30.85;101540.75;5018929;28;20036;-66
2021/04/27 05:24:21;;;;;;;2.78;0.30;;;;;;;6.72;29.54;101531.97;5019025;28;20037;-64
2021/04/27 05:26:48;;;;;;;0.60;0.20;;;;;;;7.03;28.53;101537.63;5017234;28;20025;-65
2021/04/27 05:29:15;;;;;;;3.13;0.28;;;;;;;7.82;27.21;101529.41;5023594;28;20033;-66
2021/04/27 05:31:40;;;;;;;0.95;0.43;;;;;;;7.46;28.00;101536.94;5034363;28;20640;-66
2021/04/27 05:34:06;;;;;;;1.10;0.20;;;;;;;8.15;26.76;101534.00;5034673;28;20037;-66
2021/04/27 05:36:31;;;;;;;1.80;0.57;;;;;;;8.50;26.06;101527.22;5033073;28;20100;-66
2021/04/27 05:38:57;;;;;;;0.80;0.20;;;;;;;8.27;26.04;101532.03;5032730;28;20130;-66
2021/04/27 05:41:23;;;;;;;1.75;0.30;;;;;;;8.53;25.98;101529.75;5034312;28;20021;-66
2021/04/27 05:43:48;;;;;;;1.25;0.20;;;;;;;8.59;26.05;101531.41;5035707;28;20500;-65
2021/04/27 05:46:14;;;;;;;2.08;0.50;;;;;;;8.23;26.07;101539.06;5031731;28;20736;-66
2021/04/27 05:48:40;;;;;;;1.80;0.20;;;;;;;9.10;25.37;101532.91;5017398;28;20030;-65
2021/04/27 05:51:05;;;;;;;5.90;0.75;;;;;;;10.32;23.70;101530.66;5031225;28;20037;-66
2021/04/27 05:53:31;;;;;;;2.70;0.20;;;;;;;10.82;22.95;101525.75;5000914;28;20385;-65
2021/04/27 05:55:56;;;;;;;1.52;0.75;;;;;;;11.43;21.96;101529.00;5033575;28;20092;-66
2021/04/27 05:58:22;;;;;;;2.55;0.20;;;;;;;11.67;21.50;101529.09;5015282;28;20021;-65
2021/04/27 06:00:47;;;;;;;2.13;0.80;;;;;;;12.04;21.38;101526.09;5017713;28;20033;-65
2021/04/27 06:03:13;;;;;;;0.65;0.13;;;;;;;11.70;21.80;101530.75;5032986;28;20818;-65
2021/04/27 06:05:38;;;;;;;3.28;1.02;;;;;;;11.60;21.80;101527.59;5016290;28;20090;-65
2021/04/27 06:08:04;;;;;;;3.78;0.40;;;;;;;12.60;20.26;101535.38;5021741;28;20040;-66
2021/04/27 06:10:30;;;;;;;2.72;0.20;;;;;;;12.08;21.47;101542.53;5032777;28;20033;-65
2021/04/27 06:12:55;;;;;;;1.65;0.40;;;;;;;12.54;20.93;101535.59;5031546;28;20961;-65
2021/04/27 06:15:21;;;;;;;2.92;0.75;;;;;;;12.53;20.80;101536.50;5032653;28;20029;-66
2021/04/27 06:17:46;;;;;;;0.85;0.40;;;;;;;12.54;20.67;101538.22;5035925;28;20057;-67
2021/04/27 06:20:13;;;;;;;2.42;0.32;;;;;;;12.43;20.75;101532.53;5033956;28;20033;-65
2021/04/27 06:22:39;;;;;;;2.97;0.40;;;;;;;12.98;19.98;101535.69;5036148;28;20029;-67
2021/04/27 06:25:07;;;;;;;1.65;0.28;;;;;;;13.38;19.70;101533.19;5038134;28;20041;-66
2021/04/27 06:27:33;;;;;;;2.10;0.70;;;;;;;13.42;19.63;101540.88;5036837;28;20137;-64
2021/04/27 06:30:00;;;;;;;0.75;0.40;;;;;;;13.90;19.01;101537.13;5019234;28;20048;-65
2021/04/27 06:32:27;;;;;;;1.50;0.43;;;;;;;14.54;18.66;101537.81;5035969;28;20087;-66
2021/04/27 06:34:52;;;;;;;1.45;0.50;;;;;;;14.96;18.14;101539.34;5035527;28;20777;-65
2021/04/27 06:37:18;;;;;;;2.70;0.93;;;;;;;13.91;18.74;101533.56;5036007;28;20033;-65
2021/04/27 06:39:43;;;;;;;0.85;0.28;;;;;;;14.79;18.31;101531.41;5035541;28;20026;-67
2021/04/27 06:42:09;;;;;;;1.30;0.20;;;;;;;15.20;17.68;101533.84;5038413;28;20400;-67
2021/04/27 06:44:35;;;;;;;2.33;0.40;;;;;;;14.06;18.60;101531.22;5044398;28;20033;-67
2021/04/27 06:47:02;;;;;;;1.00;0.30;;;;;;;13.77;18.59;101535.97;5031722;28;20496;-66
2021/04/27 06:49:28;;;;;;;1.95;0.43;;;;;;;13.67;19.18;101524.13;5017141;28;20162;-65
2021/04/27 06:51:54;;;;;;;0.60;0.20;;;;;;;13.48;19.45;101524.88;5037154;28;20426;-67
2021/04/27 06:54:19;;;;;;;3.13;0.50;;;;;;;14.51;18.20;101516.94;5036752;28;20524;-66
2021/04/27 06:56:45;;;;;;;2.60;0.20;;;;;;;15.12;17.83;101521.88;5036176;28;20060;-67
2021/04/27 06:59:12;;;;;;;3.25;0.30;;;;;;;15.26;17.76;101523.88;5039207;28;20052;-67
2021/04/27 07:01:39;;;;;;;2.10;0.30;;;;;;;14.92;17.90;101522.00;5038005;28;20033;-66
2021/04/27 07:04:04;;;;;;;0.82;0.20;;;;;;;14.26;18.25;101510.13;5021789;28;20030;-66
2021/04/27 07:06:30;;;;;;;1.40;0.30;;;;;;;14.66;17.75;101516.22;5037808;28;20033;-65
2021/04/27 07:08:55;;;;;;;1.00;0.30;;;;;;;14.31;18.13;101525.69;5037505;28;20037;-65
2021/04/27 07:11:21;;;;;;;1.27;0.30;;;;;;;13.72;18.79;101522.19;5037349;28;20060;-66
2021/04/27 07:13:49;;;;;;;1.25;0.20;;;;;;;14.24;18.81;101514.59;5028335;28;20021;-65
2021/04/27 07:16:19;;;;;;;2.55;0.57;;;;;;;14.61;17.28;101512.94;5020183;28;20099;-65
2021/04/27 07:18:44;;;;;;;1.25;0.40;;;;;;;14.56;17.83;101518.41;5036958;28;20036;-66
2021/04/27 07:21:10;;;;;;;1.40;0.40;;;;;;;14.91;17.66;101512.41;5037562;28;20037;-65
2021/04/27 07:23:35;;;;;;;1.63;0.22;;;;;;;14.74;18.05;101516.69;5027876;28;20549;-65
2021/04/27 07:26:03;;;;;;;1.75;0.60;;;;;;;15.51;17.20;101510.34;5037566;28;20037;-64
2021/04/27 07:28:28;;;;;;;1.33;0.47;;;;;;;14.90;17.58;101513.31;5034792;28;20033;-65
2021/04/27 07:30:54;;;;;;;3.42;0.32;;;;;;;15.11;17.74;101507.03;5038441;28;20064;-65
2021/04/27 07:33:19;;;;;;;1.85;0.30;;;;;;;15.31;17.17;101507.84;5033166;28;20033;-65
2021/04/27 07:35:45;;;;;;;2.67;0.40;;;;;;;15.02;17.61;101512.75;5035702;28;20041;-65
2021/04/27 07:38:10;;;;;;;2.83;0.40;;;;;;;15.69;16.75;101507.69;5035528;28;20653;-65
2021/04/27 07:40:36;;;;;;;1.25;0.40;;;;;;;16.42;16.73;101509.09;5037976;28;20041;-65
2021/04/27 07:43:03;;;;;;;4.55;0.55;;;;;;;17.19;15.60;101510.06;5035370;28;20106;-65
2021/04/27 07:45:33;;;;;;;1.17;0.28;;;;;;;16.76;15.69;101506.38;5033576;28;20041;-66
2021/04/27 07:48:01;;;;;;;2.45;0.30;;;;;;;16.54;15.95;101507.53;5034715;28;20611;-65
2021/04/27 07:50:27;;;;;;;1.10;0.75;;;;;;;15.78;17.03;101500.16;5035947;28;20041;-64
2021/04/27 07:52:53;;;;;;;1.77;0.30;;;;;;;15.65;16.69;101509.63;5033829;28;20033;-65
2021/04/27 07:55:19;;;;;;;1.15;0.28;;;;;;;16.20;16.63;101504.13;5036704;28;20039;-66
2021/04/27 07:57:45;;;;;;;1.35;0.22;;;;;;;16.69;16.01;101500.56;5034277;28;20074;-65
2021/04/27 08:00:11;;;;;;;0.95;0.40;;;;;;;16.19;16.10;101502.41;5033565;28;20432;-65
2021/04/27 08:02:40;;;;;;;1.27;0.47;;;;;;;17.13;15.79;101499.84;5033664;28;20116;-65
2021/04/27 08:05:07;;;;;;;4.88;0.40;;;;;;;16.77;15.61;101503.66;5034767;28;20424;-66
2021/04/27 08:07:33;;;;;;;2.97;0.30;;;;;;;16.94;15.33;101502.69;5033064;28;20063;-65
2021/04/27 08:09:59;;;;;;;1.30;0.60;;;;;;;16.66;15.33;101499.88;5034943;28;20033;-65
2021/04/27 08:12:25;;;;;;;1.77;0.30;;;;;;;17.85;15.26;101494.75;5033553;28;20599;-64
2021/04/27 08:14:51;;;;;;;1.95;0.35;;;;;;;17.69;14.04;101496.59;5031427;28;20041;-64
2021/04/27 08:17:16;;;;;;;0.80;0.20;;;;;;;17.61;14.92;101492.63;5034798;28;20572;-65
2021/04/27 08:19:42;;;;;;;1.20;0.30;;;;;;;17.34;14.49;101497.75;5034264;28;20116;-66
2021/04/27 08:22:08;;;;;;;2.15;0.32;;;;;;;16.64;15.00;101502.59;5017516;28;20033;-66
2021/04/27 08:24:34;;;;;;;1.23;0.52;;;;;;;16.50;14.52;101492.81;5029205;28;20048;-67
2021/04/27 08:27:01;;;;;;;3.13;0.30;;;;;;;16.05;15.05;101489.13;5033971;28;20119;-64
2021/04/27 08:29:27;;;;;;;2.28;0.30;;;;;;;15.82;15.10;101489.44;5031373;28;20285;-64
2021/04/27 08:31:52;;;;;;;1.30;0.17;;;;;;;17.03;14.80;101493.41;5029441;28;20033;-65
2021/04/27 08:34:18;;;;;;;3.55;0.35;;;;;;;16.69;14.55;101495.28;5024701;28;20024;-64
2021/04/27 08:36:44;;;;;;;0.50;0.20;;;;;;;15.43;14.07;101490.56;5032270;28;20028;-65
2021/04/27 08:39:10;;;;;;;1.20;0.30;;;;;;;15.27;14.71;101506.31;5030450;28;20038;-65
2021/04/27 08:41:37;;;;;;;1.08;0.32;;;;;;;16.69;14.60;101489.13;5033234;28;20608;-65
2021/04/27 08:44:04;;;;;;;1.67;0.47;;;;;;;16.27;13.88;101493.25;5032985;28;20025;-64
2021/04/27 08:46:30;;;;;;;2.63;0.20;;;;;;;16.62;14.35;101494.78;5017444;28;20033;-64
2021/04/27 08:48:56;;;;;;;1.05;0.50;;;;;;;17.01;13.86;101484.72;5035097;28;20035;-63
2021/04/27 08:51:22;;;;;;;3.85;0.85;;;;;;;15.76;13.84;101499.38;5033517;28;20029;-63
2021/04/27 08:53:48;;;;;;;5.30;0.38;;;;;;;14.43;15.53;101498.84;5031357;28;20788;-64
2021/04/27 08:56:14;;;;;;;0.77;0.20;;;;;;;15.56;15.35;101494.28;5035512;28;20037;-65
2021/04/27 08:58:40;;;;;;;1.65;0.30;;;;;;;14.88;15.27;101483.59;5033624;28;20047;-65
2021/04/27 09:01:06;;;;;;;3.70;0.43;;;;;;;15.14;15.41;101485.81;5035696;28;20029;-64
2021/04/27 09:03:50;;;;;;;1.85;0.40;;;;;;;14.21;15.73;101492.84;5031328;28;20029;-64
2021/04/27 09:06:21;;;;;;;2.80;0.50;;;;;;;14.28;15.89;101479.38;5009406;28;20048;-64
2021/04/27 09:08:48;;;;;;;0.90;0.25;;;;;;;13.20;16.07;101485.78;5034903;28;20043;-64
2021/04/27 09:11:28;;;;;;;3.90;0.30;;;;;;;13.35;16.39;101491.34;5035394;28;20048;-63
2021/04/27 09:14:18;;;;;;;1.40;0.47;;;;;;;12.56;17.59;101481.34;5035531;28;20033;-63
2021/04/27 09:16:47;;;;;;;1.08;0.40;;;;;;;11.78;18.63;101484.25;5024098;28;20139;-65
2021/04/27 09:19:31;;;;;;;1.20;0.30;;;;;;;12.62;16.82;101488.94;5035038;28;20048;-64
2021/04/27 09:22:21;;;;;;;3.50;0.50;;;;;;;13.31;17.41;101482.72;5033098;28;20088;-64
2021/04/27 09:25:00;;;;;;;1.33;0.40;;;;;;;14.08;16.92;101480.28;5035997;28;20512;-65
2021/04/27 09:27:31;;;;;;;5.03;0.85;;;;;;;13.09;16.66;101480.13;5019872;28;20037;-63
2021/04/27 09:29:58;;;;;;;;;;;;;;;12.35;18.52;101477.75;5035643;28;20029;-65
2021/04/27 09:32:42;;;;;;;0.93;0.47;;;;;;;12.08;17.60;101469.16;5033417;28;19943;-64
2021/04/27 09:35:33;;;;;;;2.83;0.32;;;;;;;13.06;17.52;101470.63;5034656;28;20040;-62
2021/04/27 09:38:22;;;;;;;0.88;0.40;;;;;;;13.61;17.89;101471.88;5035535;28;20021;-65
2021/04/27 09:41:00;;;;;;;2.83;0.60;;;;;;;13.77;17.55;101462.41;5018122;28;20033;-63
2021/04/27 09:43:29;;;;;;;5.72;1.17;;;;;;;13.50;17.42;101465.28;5016853;28;20056;-64
2021/04/27 09:45:57;;;;;;;3.25;0.45;;;;;;;13.44;17.30;101470.78;5033500;28;20071;-65
2021/04/27 09:48:33;;;;;;;3.75;0.82;;;;;;;13.09;17.63;101460.00;5035367;28;20065;-64
2021/04/27 09:51:05;;;;;;;2.22;0.70;;;;;;;13.26;17.23;101461.06;5042562;28;20029;-64
2021/04/27 09:53:43;;;;;;;1.67;0.80;;;;;;;13.42;16.57;101462.13;5036428;28;20037;-65
2021/04/27 09:56:10;;;;;;;2.35;0.75;;;;;;;13.26;16.55;101455.81;5040663;28;20033;-65
2021/04/27 09:58:36;;;;;;;3.50;1.00;;;;;;;13.37;17.26;101455.38;5040812;28;20573;-63
2021/04/27 10:01:05;;;;;;;1.00;0.57;;;;;;;13.17;17.13;101450.97;5043864;28;20028;-66
2021/04/27 10:03:30;;;;;;;2.55;0.60;;;;;;;12.79;17.81;101450.75;5043265;28;20068;-64
2021/04/27 10:05:57;;;;;;;2.60;1.27;;;;;;;12.89;17.70;101441.59;5046111;28;20048;-64
2021/04/27 10:08:24;;;;;;;3.47;1.35;;;;;;;12.81;17.26;101443.69;5027167;28;20029;-63
2021/04/27 10:10:50;;;;;;;2.22;1.30;;;;;;;12.82;17.31;101434.88;5040997;28;20041;-64
2021/04/27 10:13:15;;;;;;;3.17;1.40;;;;;;;13.55;17.17;101437.97;5042209;28;20128;-64
2021/04/27 10:15:41;;;;;;;5.80;1.20;;;;;;;13.09;17.08;101440.75;5041176;28;20097;-65
2021/04/27 10:18:09;;;;;;;2.92;1.08;;;;;;;14.29;17.53;101432.88;5046123;28;20041;-63
2021/04/27 10:20:34;;;;;;;2.38;1.10;;;;;;;15.28;16.42;101423.72;5044894;28;20156;-64
2021/04/27 10:23:05;;;;;;;6.75;1.48;;;;;;;13.48;15.78;101440.84;5040022;28;20619;-64
2021/04/27 10:25:31;;;;;;;5.32;1.38;;;;;;;13.27;17.02;101437.38;5038467;28;20037;-63
2021/04/27 10:28:01;;;;;;;1.98;1.77;;;;;;;13.50;15.89;101433.75;5036913;28;20040;-63
2021/04/27 10:30:28;;;;;;;1.38;1.23;;;;;;;13.30;16.14;101426.75;5040424;28;20037;-63
2021/04/27 10:33:03;;;;;;;1.52;1.30;;;;;;;13.60;15.52;101415.84;5031125;28;20124;-64
2021/04/27 10:35:37;;;;;;;2.72;1.52;;;;;;;14.06;16.00;101420.81;5036089;28;20087;-65
2021/04/27 10:38:09;;;;;;;1.63;1.30;;;;;;;14.88;15.85;101415.16;5035633;28;20171;-63
2021/04/27 10:41:00;;;;;;;3.22;1.42;;;;;;;15.04;14.76;101402.97;5036820;28;20033;-63
2021/04/27 10:43:31;;;;;;;3.28;1.40;;;;;;;13.69;14.68;101406.72;5037166;28;20036;-64
2021/04/27 10:46:30;;;;;;;4.03;1.63;;;;;;;14.22;15.75;101407.81;5026804;28;20022;-63
2021/04/27 10:49:33;;;;;;;3.20;1.70;;;;;;;13.85;16.07;101399.00;5027235;28;20087;-65
2021/04/27 10:52:01;;;;;;;11.13;1.50;;;;;;;13.25;15.96;101396.34;5038752;28;20046;-66
2021/04/27 10:54:33;;;;;;;4.60;1.20;;;;;;;13.96;15.59;101401.13;5038278;28;20557;-64
2021/04/27 10:57:04;;;;;;;1.58;0.60;;;;;;;14.72;15.88;101396.66;5038083;28;20431;-64
2021/04/27 10:59:48;;;;;;;2.08;0.50;;;;;;;13.57;16.51;101394.16;5038144;28;20432;-63
2021/04/27 11:02:20;;;;;;;2.63;0.80;;;;;;;13.09;16.45;101385.66;5039584;28;20041;-65
2021/04/27 11:04:51;;;;;;;1.88;0.80;;;;;;;14.19;16.38;101395.66;5035982;28;20041;-65
2021/04/27 11:07:20;;;;;;;2.70;0.60;;;;;;;14.52;15.48;101376.59;5037053;28;20032;-64
2021/04/27 11:10:00;;;;;;;2.83;0.88;;;;;;;13.85;16.28;101386.72;5036222;28;20137;-64
2021/04/27 11:12:29;;;;;;;1.13;0.50;;;;;;;13.77;16.76;101380.97;5038232;28;20549;-63
2021/04/27 11:15:05;;;;;;;2.83;1.05;;;;;;;14.11;16.98;101368.88;5036486;28;20126;-63
2021/04/27 11:17:33;;;;;;;1.77;0.60;;;;;;;14.60;16.06;101366.56;5036027;28;20041;-64
2021/04/27 11:20:00;;;;;;;2.90;0.82;;;;;;;13.90;16.75;101379.47;5033417;28;20488;-63
2021/04/27 11:22:34;;;;;;;4.70;1.00;;;;;;;13.35;16.57;101376.66;5035937;28;20498;-63
2021/04/27 11:25:01;;;;;;;1.52;0.60;;;;;;;14.23;16.66;101363.06;5025028;28;20064;-64
2021/04/27 11:27:33;;;;;;;1.35;0.50;;;;;;;13.93;15.92;101368.81;5036901;28;20098;-65
2021/04/27 11:30:11;;;;;;;2.92;0.93;;;;;;;14.48;15.49;101364.53;5032679;28;20041;-63
2021/04/27 11:32:39;;;;;;;1.48;0.60;;;;;;;14.23;15.92;101363.06;5035555;28;20114;-64
2021/04/27 11:35:16;;;;;;;1.60;0.60;;;;;;;14.24;16.01;101367.38;5034555;28;20045;-65
2021/04/27 11:37:52;;;;;;;6.70;0.88;;;;;;;14.66;16.13;101358.38;5019911;28;20585;-64
2021/04/27 11:40:39;;;;;;;3.10;0.70;;;;;;;15.52;15.49;101359.22;5031996;28;20040;-64
2021/04/27 11:43:14;;;;;;;5.72;0.90;;;;;;;15.01;15.14;101352.25;5037719;28;20095;-64